createdAt,value
2023-08-07T00:01:05.914Z,101189.75
2023-08-07T00:03:36.903Z,101187.31
2023-08-07T00:06:06.431Z,101186.50
2023-08-07T00:08:35.411Z,101188.13
2023-08-07T00:11:11.330Z,101184.66
2023-08-07T00:13:40.262Z,101190.72
2023-08-07T00:16:11.627Z,101191.63
2023-08-07T00:18:40.836Z,101185.56
2023-08-07T00:21:10.119Z,101199.38
2023-08-07T00:23:39.048Z,101185.66
2023-08-07T00:26:08.364Z,101185.56
2023-08-07T00:28:37.437Z,101190.75
2023-08-07T00:31:06.419Z,101186.50
2023-08-07T00:33:35.318Z,101183.84
2023-08-07T00:36:04.854Z,101192.41
2023-08-07T00:38:34.256Z,101187.16
2023-08-07T00:41:03.296Z,101190.00
2023-08-07T00:43:32.506Z,101190.00
2023-08-07T00:46:02.262Z,101185.72
2023-08-07T00:48:32.905Z,101191.44
2023-08-07T00:51:02.565Z,101181.31
2023-08-07T00:53:31.820Z,101187.31
2023-08-07T00:56:01.566Z,101189.06
2023-08-07T00:58:31.142Z,101198.53
2023-08-07T01:01:00.414Z,101190.69
2023-08-07T01:03:29.528Z,101199.88
2023-08-07T01:05:59.014Z,101197.72
2023-08-07T01:08:28.834Z,101208.38
2023-08-07T01:11:29.681Z,101203.50
2023-08-07T01:14:20.340Z,101216.53
2023-08-07T01:16:54.705Z,101223.25
2023-08-07T01:19:29.292Z,101223.06
2023-08-07T01:22:27.614Z,101227.00
2023-08-07T01:24:56.704Z,101218.34
2023-08-07T01:27:36.388Z,101219.28
2023-08-07T01:30:16.035Z,101226.28
2023-08-07T01:33:10.401Z,101221.13
2023-08-07T01:35:47.564Z,101222.66
2023-08-07T01:38:17.671Z,101222.75
2023-08-07T01:40:49.049Z,101215.13
2023-08-07T01:43:20.092Z,101215.06
2023-08-07T01:45:49.095Z,101215.72
2023-08-07T01:48:18.143Z,101224.19
2023-08-07T01:50:47.776Z,101216.75
2023-08-07T01:53:16.796Z,101214.63
2023-08-07T01:55:45.737Z,101215.75
2023-08-07T01:58:14.656Z,101210.41
2023-08-07T02:00:43.901Z,101209.59
2023-08-07T02:03:13.030Z,101217.22
2023-08-07T02:05:42.492Z,101224.19
2023-08-07T02:08:11.834Z,101223.81
2023-08-07T02:10:41.069Z,101222.84
2023-08-07T02:13:11.800Z,101223.22
2023-08-07T02:15:41.347Z,101223.09
2023-08-07T02:18:10.604Z,101220.09
2023-08-07T02:20:40.559Z,101222.50
2023-08-07T02:23:09.504Z,101229.72
2023-08-07T02:25:38.437Z,101230.06
2023-08-07T02:28:07.319Z,101221.38
2023-08-07T02:30:36.527Z,101226.50
2023-08-07T02:33:05.708Z,101220.47
2023-08-07T02:35:35.017Z,101226.13
2023-08-07T02:38:04.010Z,101226.13
2023-08-07T02:40:33.005Z,101214.97
2023-08-07T02:43:02.235Z,101220.38
2023-08-07T02:45:31.489Z,101217.69
2023-08-07T02:48:01.825Z,101218.81
2023-08-07T02:50:33.816Z,101223.69
2023-08-07T02:53:03.414Z,101216.94
2023-08-07T02:55:32.660Z,101217.94
2023-08-07T02:58:01.876Z,101217.63
2023-08-07T03:00:30.969Z,101213.16
2023-08-07T03:03:00.173Z,101200.97
2023-08-07T03:05:29.257Z,101216.38
2023-08-07T03:07:58.411Z,101203.97
2023-08-07T03:10:28.772Z,101217.00
2023-08-07T03:12:57.993Z,101208.81
2023-08-07T03:15:27.143Z,101209.13
2023-08-07T03:17:56.419Z,101207.28
2023-08-07T03:20:25.389Z,101201.34
2023-08-07T03:22:55.320Z,101206.72
2023-08-07T03:25:24.395Z,101186.44
2023-08-07T03:27:53.455Z,101186.75
2023-08-07T03:30:22.375Z,101187.41
2023-08-07T03:32:51.573Z,101178.66
2023-08-07T03:35:20.726Z,101185.41
2023-08-07T03:37:50.152Z,101186.75
2023-08-07T03:40:19.363Z,101191.28
2023-08-07T03:42:48.658Z,101183.44
2023-08-07T03:45:17.846Z,101185.97
2023-08-07T03:47:47.051Z,101194.31
2023-08-07T03:50:16.090Z,101184.91
2023-08-07T03:52:45.353Z,101190.97
2023-08-07T03:55:14.695Z,101178.91
2023-08-07T03:57:43.844Z,101184.59
2023-08-07T04:00:13.230Z,101193.97
2023-08-07T04:02:42.632Z,101202.66
2023-08-07T04:05:12.060Z,101197.03
2023-08-07T04:07:41.366Z,101208.38
2023-08-07T04:10:10.740Z,101210.09
2023-08-07T04:12:39.986Z,101202.22
2023-08-07T04:15:10.211Z,101220.22
2023-08-07T04:17:39.510Z,101221.31
2023-08-07T04:20:09.612Z,101222.59
2023-08-07T04:22:38.856Z,101231.69
2023-08-07T04:25:08.397Z,101231.41
2023-08-07T04:27:37.695Z,101231.34
2023-08-07T04:30:07.624Z,101234.91
2023-08-07T04:32:36.851Z,101234.16
2023-08-07T04:35:06.596Z,101238.63
2023-08-07T04:37:35.885Z,101246.13
2023-08-07T04:40:06.089Z,101246.44
2023-08-07T04:42:35.389Z,101245.25
2023-08-07T04:45:05.122Z,101251.44
2023-08-07T04:47:34.139Z,101252.47
2023-08-07T04:50:03.330Z,101256.25
2023-08-07T04:52:33.891Z,101260.13
2023-08-07T04:55:03.381Z,101255.84
2023-08-07T04:57:32.422Z,101260.91
2023-08-07T05:00:01.700Z,101257.41
2023-08-07T05:02:30.870Z,101258.31
2023-08-07T05:05:00.218Z,101259.84
2023-08-07T05:07:29.242Z,101266.94
2023-08-07T05:10:00.814Z,101274.66
2023-08-07T05:12:30.688Z,101275.72
2023-08-07T05:15:00.443Z,101266.31
2023-08-07T05:17:29.772Z,101278.16
2023-08-07T05:19:59.166Z,101274.31
2023-08-07T05:22:28.405Z,101283.16
2023-08-07T05:24:57.313Z,101283.09
2023-08-07T05:27:26.563Z,101288.13
2023-08-07T05:29:55.643Z,101294.44
2023-08-07T05:32:24.574Z,101303.88
2023-08-07T05:34:54.360Z,101300.47
2023-08-07T05:37:23.673Z,101301.06
2023-08-07T05:39:52.765Z,101304.41
2023-08-07T05:42:21.692Z,101306.41
2023-08-07T05:44:50.991Z,101315.09
2023-08-07T05:47:20.144Z,101327.09
2023-08-07T05:49:48.997Z,101320.38
2023-08-07T05:52:19.183Z,101333.06
2023-08-07T05:54:49.048Z,101331.53
2023-08-07T05:57:19.228Z,101338.63
2023-08-07T05:59:48.166Z,101341.88
2023-08-07T06:02:17.421Z,101349.88
2023-08-07T06:04:46.496Z,101348.31
2023-08-07T06:07:15.425Z,101348.44
2023-08-07T06:09:45.082Z,101351.09
2023-08-07T06:12:14.185Z,101358.97
2023-08-07T06:14:44.433Z,101356.63
2023-08-07T06:17:13.727Z,101366.78
2023-08-07T06:19:42.945Z,101367.66
2023-08-07T06:22:11.911Z,101366.47
2023-08-07T06:24:41.181Z,101374.22
2023-08-07T06:27:10.083Z,101372.78
2023-08-07T06:29:39.310Z,101366.66
2023-08-07T06:32:08.818Z,101376.03
2023-08-07T06:34:39.197Z,101374.25
2023-08-07T06:37:08.510Z,101386.44
2023-08-07T06:39:37.385Z,101395.06
2023-08-07T06:42:06.657Z,101397.69
2023-08-07T06:44:35.864Z,101394.03
2023-08-07T06:47:04.955Z,101394.56
2023-08-07T06:49:34.419Z,101401.34
2023-08-07T06:52:03.813Z,101404.75
2023-08-07T06:54:32.758Z,101399.50
2023-08-07T06:57:02.183Z,101394.84
2023-08-07T06:59:31.582Z,101406.00
2023-08-07T07:02:00.735Z,101402.41
2023-08-07T07:04:30.086Z,101417.28
2023-08-07T07:06:59.018Z,101413.97
2023-08-07T07:09:29.963Z,101417.41
2023-08-07T07:11:59.235Z,101420.22
2023-08-07T07:14:28.256Z,101415.94
2023-08-07T07:16:57.181Z,101428.91
2023-08-07T07:19:26.394Z,101432.31
2023-08-07T07:21:55.683Z,101435.53
2023-08-07T07:24:24.774Z,101439.06
2023-08-07T07:26:54.099Z,101443.53
2023-08-07T07:29:23.282Z,101442.41
2023-08-07T07:31:52.374Z,101447.63
2023-08-07T07:34:21.429Z,101456.50
2023-08-07T07:36:50.573Z,101475.56
2023-08-07T07:39:19.891Z,101463.25
2023-08-07T07:41:49.326Z,101469.81
2023-08-07T07:44:18.494Z,101477.00
2023-08-07T07:46:47.435Z,101474.38
2023-08-07T07:49:16.700Z,101469.81
2023-08-07T07:51:47.758Z,101467.69
2023-08-07T07:54:16.905Z,101477.50
2023-08-07T07:56:46.142Z,101467.56
2023-08-07T07:59:15.151Z,101471.81
2023-08-07T08:01:44.243Z,101480.34
2023-08-07T08:04:13.486Z,101477.38
2023-08-07T08:06:42.735Z,101476.16
2023-08-07T08:09:12.136Z,101494.25
2023-08-07T08:11:41.319Z,101477.41
2023-08-07T08:14:10.976Z,101482.44
2023-08-07T08:16:40.482Z,101486.28
2023-08-07T08:19:11.063Z,101480.53
2023-08-07T08:21:41.773Z,101490.09
2023-08-07T08:24:10.822Z,101493.34
2023-08-07T08:26:40.005Z,101501.91
2023-08-07T08:29:09.357Z,101499.78
2023-08-07T08:31:38.557Z,101502.31
2023-08-07T08:34:07.569Z,101498.41
2023-08-07T08:36:37.418Z,101495.38
2023-08-07T08:39:06.530Z,101508.84
2023-08-07T08:41:35.777Z,101520.63
2023-08-07T08:44:06.804Z,101513.09
2023-08-07T08:46:37.180Z,101510.13
2023-08-07T08:49:09.100Z,101527.19
2023-08-07T08:51:38.904Z,101523.41
2023-08-07T08:54:09.113Z,101520.19
2023-08-07T08:56:39.155Z,101517.09
2023-08-07T08:59:08.427Z,101515.47
2023-08-07T09:01:38.607Z,101512.16
2023-08-07T09:04:08.212Z,101514.81
2023-08-07T09:06:37.674Z,101517.66
2023-08-07T09:09:08.429Z,101530.31
2023-08-07T09:11:38.038Z,101515.13
2023-08-07T09:14:07.537Z,101527.84
2023-08-07T09:16:37.380Z,101523.09
2023-08-07T09:19:07.453Z,101553.25
2023-08-07T09:21:37.037Z,101549.22
2023-08-07T09:24:06.331Z,101548.59
2023-08-07T09:26:35.559Z,101540.81
2023-08-07T09:29:05.003Z,101550.75
2023-08-07T09:31:34.143Z,101548.75
2023-08-07T09:34:06.318Z,101558.91
2023-08-07T09:36:35.878Z,101543.97
2023-08-07T09:39:05.601Z,101550.22
2023-08-07T09:41:36.385Z,101554.69
2023-08-07T09:44:09.879Z,101551.94
2023-08-07T09:46:46.279Z,101563.19
2023-08-07T09:49:17.196Z,101557.63
2023-08-07T09:51:49.092Z,101570.16
2023-08-07T09:54:18.017Z,101562.53
2023-08-07T09:56:49.017Z,101564.00
2023-08-07T09:59:18.212Z,101571.59
2023-08-07T10:01:47.673Z,101577.16
2023-08-07T10:04:17.231Z,101573.56
2023-08-07T10:06:47.989Z,101586.06
2023-08-07T10:09:17.536Z,101590.00
2023-08-07T10:11:47.299Z,101601.13
2023-08-07T10:14:16.882Z,101611.28
2023-08-07T10:16:46.980Z,101609.47
2023-08-07T10:19:16.120Z,101606.34
2023-08-07T10:21:46.473Z,101611.47
2023-08-07T10:24:17.093Z,101619.31
2023-08-07T10:26:47.767Z,101603.91
2023-08-07T10:29:20.324Z,101617.31
2023-08-07T10:31:51.422Z,101620.19
2023-08-07T10:34:20.728Z,101624.34
2023-08-07T10:36:50.966Z,101623.78
2023-08-07T10:39:20.409Z,101623.28
2023-08-07T10:41:56.187Z,101621.97
2023-08-07T10:44:26.945Z,101623.09
2023-08-07T10:46:58.361Z,101628.06
2023-08-07T10:49:34.062Z,101625.91
2023-08-07T10:52:26.327Z,101632.16
2023-08-07T10:54:55.735Z,101623.38
2023-08-07T10:57:32.971Z,101628.41
2023-08-07T11:00:07.480Z,101630.56
2023-08-07T11:02:40.898Z,101626.41
2023-08-07T11:05:10.138Z,101620.47
2023-08-07T11:07:41.799Z,101626.78
2023-08-07T11:10:15.870Z,101638.19
2023-08-07T11:12:45.883Z,101629.81
2023-08-07T11:15:15.791Z,101634.47
2023-08-07T11:17:44.746Z,101651.56
2023-08-07T11:20:13.943Z,101630.00
2023-08-07T11:22:44.173Z,101632.88
2023-08-07T11:25:14.777Z,101638.47
2023-08-07T11:27:44.858Z,101641.19
2023-08-07T11:30:14.071Z,101641.63
2023-08-07T11:32:43.701Z,101640.38
2023-08-07T11:35:12.987Z,101639.38
2023-08-07T11:37:48.940Z,101655.66
2023-08-07T11:40:18.015Z,101655.31
2023-08-07T11:42:47.133Z,101656.75
2023-08-07T11:45:18.638Z,101648.31
2023-08-07T11:47:48.107Z,101652.44
2023-08-07T11:50:17.617Z,101650.72
2023-08-07T11:52:47.124Z,101650.31
2023-08-07T11:55:16.513Z,101651.69
2023-08-07T11:57:48.934Z,101642.44
2023-08-07T12:00:18.116Z,101655.63
2023-08-07T12:02:47.759Z,101651.53
2023-08-07T12:05:16.731Z,101650.53
2023-08-07T12:07:46.194Z,101647.13
2023-08-07T12:10:15.620Z,101656.22
2023-08-07T12:12:46.184Z,101650.53
2023-08-07T12:15:21.053Z,101651.34
2023-08-07T12:17:50.110Z,101652.56
2023-08-07T12:20:19.462Z,101654.44
2023-08-07T12:22:49.823Z,101656.34
2023-08-07T12:25:19.048Z,101670.41
2023-08-07T12:27:49.915Z,101662.53
2023-08-07T12:30:18.895Z,101668.69
2023-08-07T12:32:48.135Z,101655.59
2023-08-07T12:35:19.786Z,101649.56
2023-08-07T12:37:48.990Z,101652.72
2023-08-07T12:42:54.294Z,101647.47
2023-08-07T12:47:56.422Z,101651.81
2023-08-07T12:50:30.568Z,101648.66
2023-08-07T12:53:00.038Z,101646.03
2023-08-07T12:55:29.781Z,101646.44
2023-08-07T12:57:59.656Z,101644.34
2023-08-07T13:00:28.629Z,101651.13
2023-08-07T13:02:58.053Z,101652.19
2023-08-07T13:05:29.178Z,101646.88
2023-08-07T13:07:59.833Z,101654.84
2023-08-07T13:10:32.743Z,101644.16
2023-08-07T13:13:02.861Z,101658.28
2023-08-07T13:15:32.172Z,101659.84
2023-08-07T13:18:01.963Z,101662.50
2023-08-07T13:20:35.234Z,101659.63
2023-08-07T13:23:07.649Z,101660.91
2023-08-07T13:25:37.843Z,101666.59
2023-08-07T13:28:08.054Z,101665.84
2023-08-07T13:30:37.913Z,101668.69
2023-08-07T13:33:07.297Z,101658.72
2023-08-07T13:35:36.649Z,101657.03
2023-08-07T13:38:09.115Z,101660.19
2023-08-07T13:40:38.475Z,101664.91
2023-08-07T13:43:10.613Z,101672.22
2023-08-07T13:45:39.963Z,101675.31
2023-08-07T13:48:10.854Z,101676.03
2023-08-07T13:50:40.530Z,101660.75
2023-08-07T13:53:15.287Z,101668.91
2023-08-07T13:55:45.590Z,101673.88
2023-08-07T13:58:17.884Z,101679.41
2023-08-07T14:00:47.030Z,101682.28
2023-08-07T14:03:16.455Z,101682.72
2023-08-07T14:05:45.520Z,101688.75
2023-08-07T14:08:14.946Z,101685.91
2023-08-07T14:10:44.520Z,101691.88
2023-08-07T14:13:13.630Z,101698.66
2023-08-07T14:15:43.149Z,101700.47
2023-08-07T14:18:14.574Z,101694.53
2023-08-07T14:21:00.472Z,101706.94
2023-08-07T14:23:33.931Z,101703.34
2023-08-07T14:26:03.637Z,101711.34
2023-08-07T14:28:32.970Z,101728.03
2023-08-07T14:31:02.423Z,101720.28
2023-08-07T14:33:31.767Z,101723.03
2023-08-07T14:36:01.791Z,101733.28
2023-08-07T14:38:31.002Z,101731.03
2023-08-07T14:41:03.834Z,101729.63
2023-08-07T14:43:33.322Z,101727.78
2023-08-07T14:46:02.580Z,101724.88
2023-08-07T14:48:31.943Z,101725.75
2023-08-07T14:51:00.974Z,101727.34
2023-08-07T14:53:30.412Z,101729.06
2023-08-07T14:55:59.506Z,101723.03
2023-08-07T14:58:28.575Z,101731.75
2023-08-07T15:00:57.919Z,101728.44
2023-08-07T15:03:27.297Z,101735.69
2023-08-07T15:05:58.312Z,101737.09
2023-08-07T15:08:27.346Z,101741.53
2023-08-07T15:10:56.621Z,101734.09
2023-08-07T15:13:26.420Z,101739.59
2023-08-07T15:15:56.001Z,101741.69
2023-08-07T15:18:25.454Z,101743.53
2023-08-07T15:20:54.405Z,101739.00
2023-08-07T15:23:23.706Z,101746.50
2023-08-07T15:25:52.952Z,101756.41
2023-08-07T15:28:22.288Z,101745.00
2023-08-07T15:30:52.099Z,101754.03
2023-08-07T15:33:23.651Z,101756.19
2023-08-07T15:35:57.625Z,101754.56
2023-08-07T15:38:29.622Z,101750.72
2023-08-07T15:40:58.892Z,101754.06
2023-08-07T15:43:28.073Z,101748.91
2023-08-07T15:45:57.186Z,101755.63
2023-08-07T15:48:26.272Z,101749.78
2023-08-07T15:50:55.634Z,101754.25
2023-08-07T15:53:24.682Z,101752.09
2023-08-07T15:55:53.878Z,101757.03
2023-08-07T15:58:24.009Z,101766.47
2023-08-07T16:00:53.176Z,101752.22
2023-08-07T16:03:23.444Z,101753.72
2023-08-07T16:05:52.704Z,101745.69
2023-08-07T16:08:21.811Z,101755.22
2023-08-07T16:10:51.917Z,101749.00
2023-08-07T16:13:21.523Z,101746.16
2023-08-07T16:15:50.656Z,101747.91
2023-08-07T16:18:20.436Z,101757.47
2023-08-07T16:20:49.736Z,101765.44
2023-08-07T16:23:19.017Z,101751.50
2023-08-07T16:25:47.980Z,101758.13
2023-08-07T16:28:17.437Z,101752.84
2023-08-07T16:30:46.546Z,101744.13
2023-08-07T16:33:17.398Z,101745.75
2023-08-07T16:35:46.738Z,101749.34
2023-08-07T16:38:16.077Z,101746.56
2023-08-07T16:40:45.384Z,101743.41
2023-08-07T16:43:14.553Z,101740.00
2023-08-07T16:45:43.809Z,101743.22
2023-08-07T16:48:13.054Z,101742.78
2023-08-07T16:50:45.916Z,101737.03
2023-08-07T16:53:17.917Z,101736.16
2023-08-07T16:55:47.189Z,101740.03
2023-08-07T16:58:16.832Z,101737.81
2023-08-07T17:00:46.082Z,101735.84
2023-08-07T17:03:16.075Z,101741.34
2023-08-07T17:05:45.262Z,101731.31
2023-08-07T17:08:14.472Z,101727.84
2023-08-07T17:10:43.659Z,101731.31
2023-08-07T17:13:12.659Z,101732.13
2023-08-07T17:15:42.021Z,101730.34
2023-08-07T17:18:11.229Z,101731.38
2023-08-07T17:20:40.208Z,101727.03
2023-08-07T17:23:09.464Z,101723.53
2023-08-07T17:25:38.808Z,101724.56
2023-08-07T17:28:07.810Z,101727.88
2023-08-07T17:30:37.226Z,101717.22
2023-08-07T17:33:06.750Z,101719.16
2023-08-07T17:35:36.064Z,101722.03
2023-08-07T17:38:05.491Z,101718.03
2023-08-07T17:40:34.822Z,101720.56
2023-08-07T17:43:03.832Z,101711.53
2023-08-07T17:45:33.063Z,101705.59
2023-08-07T17:48:02.387Z,101705.91
2023-08-07T17:50:31.564Z,101710.31
2023-08-07T17:53:00.899Z,101704.28
2023-08-07T17:55:31.295Z,101706.84
2023-08-07T17:58:01.468Z,101711.31
2023-08-07T18:00:30.514Z,101711.81
2023-08-07T18:02:59.758Z,101708.53
2023-08-07T18:05:30.658Z,101695.88
2023-08-07T18:07:59.637Z,101700.13
2023-08-07T18:10:29.052Z,101700.81
2023-08-07T18:12:58.784Z,101701.59
2023-08-07T18:15:27.815Z,101698.38
2023-08-07T18:17:56.969Z,101697.59
2023-08-07T18:20:26.057Z,101701.06
2023-08-07T18:22:55.396Z,101698.44
2023-08-07T18:25:24.594Z,101699.31
2023-08-07T18:27:53.936Z,101691.56
2023-08-07T18:30:23.066Z,101688.09
2023-08-07T18:32:54.104Z,101694.22
2023-08-07T18:35:24.823Z,101689.00
2023-08-07T18:37:53.785Z,101687.28
2023-08-07T18:40:23.022Z,101683.81
2023-08-07T18:42:52.374Z,101682.94
2023-08-07T18:45:21.325Z,101686.41
2023-08-07T18:47:52.222Z,101676.00
2023-08-07T18:50:21.626Z,101683.84
2023-08-07T18:52:50.838Z,101683.72
2023-08-07T18:55:20.151Z,101686.25
2023-08-07T18:57:50.357Z,101684.53
2023-08-07T19:00:19.978Z,101680.19
2023-08-07T19:02:49.580Z,101676.75
2023-08-07T19:05:18.740Z,101679.25
2023-08-07T19:07:48.083Z,101674.00
2023-08-07T19:10:17.365Z,101680.16
2023-08-07T19:12:46.612Z,101663.63
2023-08-07T19:15:17.665Z,101664.34
2023-08-07T19:17:46.749Z,101680.66
2023-08-07T19:20:15.994Z,101665.19
2023-08-07T19:22:45.348Z,101661.53
2023-08-07T19:25:14.901Z,101665.94
2023-08-07T19:27:44.153Z,101670.25
2023-08-07T19:30:13.496Z,101666.00
2023-08-07T19:32:44.567Z,101674.94
2023-08-07T19:35:13.932Z,101670.50
2023-08-07T19:37:43.366Z,101667.81
2023-08-07T19:40:12.600Z,101668.00
2023-08-07T19:42:41.678Z,101664.41
2023-08-07T19:45:11.564Z,101663.69
2023-08-07T19:47:41.569Z,101656.03
2023-08-07T19:50:11.471Z,101655.97
2023-08-07T19:52:40.823Z,101661.13
2023-08-07T19:55:10.722Z,101658.63
2023-08-07T19:57:40.290Z,101651.72
2023-08-07T20:00:11.911Z,101656.88
2023-08-07T20:02:42.048Z,101655.84
2023-08-07T20:05:11.651Z,101657.78
2023-08-07T20:07:41.141Z,101651.72
2023-08-07T20:10:12.340Z,101647.31
2023-08-07T20:12:43.582Z,101649.09
2023-08-07T20:15:14.223Z,101651.72
2023-08-07T20:17:46.901Z,101643.88
2023-08-07T20:20:16.813Z,101643.00
2023-08-07T20:22:46.070Z,101638.78
2023-08-07T20:25:15.412Z,101637.06
2023-08-07T20:27:45.105Z,101631.78
2023-08-07T20:30:14.460Z,101629.28
2023-08-07T20:32:43.402Z,101624.97
2023-08-07T20:35:12.627Z,101624.09
2023-08-07T20:37:41.942Z,101624.06
2023-08-07T20:40:13.646Z,101625.75
2023-08-07T20:42:43.056Z,101625.69
2023-08-07T20:45:12.061Z,101623.94
2023-08-07T20:47:41.070Z,101629.03
2023-08-07T20:50:10.804Z,101629.78
2023-08-07T20:52:39.780Z,101617.56
2023-08-07T20:55:09.310Z,101627.75
2023-08-07T20:57:38.359Z,101620.78
2023-08-07T21:00:10.035Z,101612.16
2023-08-07T21:02:39.594Z,101619.19
2023-08-07T21:05:09.071Z,101610.53
2023-08-07T21:07:38.328Z,101600.91
2023-08-07T21:10:08.895Z,101602.63
2023-08-07T21:12:37.932Z,101603.47
2023-08-07T21:15:07.647Z,101602.66
2023-08-07T21:17:37.353Z,101599.13
2023-08-07T21:20:07.330Z,101583.38
2023-08-07T21:22:36.798Z,101588.91
2023-08-07T21:25:06.741Z,101575.13
2023-08-07T21:27:37.077Z,101573.63
2023-08-07T21:30:07.129Z,101570.91
2023-08-07T21:32:36.142Z,101568.09
2023-08-07T21:35:05.938Z,101574.22
2023-08-07T21:37:34.962Z,101579.63
2023-08-07T21:40:05.974Z,101572.69
2023-08-07T21:42:35.079Z,101563.06
2023-08-07T21:45:04.893Z,101562.16
2023-08-07T21:47:34.144Z,101569.28
2023-08-07T21:50:03.715Z,101571.81
2023-08-07T21:52:32.699Z,101563.38
2023-08-07T21:55:02.150Z,101553.91
2023-08-07T21:57:32.142Z,101550.44
2023-08-07T22:00:01.150Z,101553.97
2023-08-07T22:02:30.227Z,101548.78
2023-08-07T22:04:59.525Z,101551.31
2023-08-07T22:07:28.953Z,101546.22
2023-08-07T22:09:58.138Z,101540.13
2023-08-07T22:12:27.128Z,101540.13
2023-08-07T22:14:57.434Z,101534.94
2023-08-07T22:17:26.534Z,101527.16
2023-08-07T22:20:04.635Z,101537.56
2023-08-07T22:22:35.117Z,101534.09
2023-08-07T22:25:05.633Z,101534.94
2023-08-07T22:27:34.691Z,101534.91
2023-08-07T22:30:06.611Z,101531.47
2023-08-07T22:32:37.146Z,101528.88
2023-08-07T22:35:06.600Z,101531.44
2023-08-07T22:37:35.816Z,101532.34
2023-08-07T22:40:05.577Z,101525.41
2023-08-07T22:42:34.576Z,101530.59
2023-08-07T22:45:03.831Z,101524.56
2023-08-07T22:47:32.885Z,101518.50
2023-08-07T22:50:02.100Z,101521.97
2023-08-07T22:52:31.172Z,101521.13
2023-08-07T22:55:00.188Z,101510.72
2023-08-07T22:57:29.631Z,101508.94
2023-08-07T22:59:58.720Z,101508.06
2023-08-07T23:02:27.846Z,101508.06
2023-08-07T23:04:57.021Z,101508.97
2023-08-07T23:07:26.418Z,101500.31
2023-08-07T23:09:55.547Z,101508.16
2023-08-07T23:12:24.775Z,101498.56
2023-08-07T23:14:54.557Z,101496.03
2023-08-07T23:17:23.723Z,101502.09
2023-08-07T23:19:52.887Z,101491.69
2023-08-07T23:22:22.198Z,101500.28
2023-08-07T23:24:51.158Z,101491.69
2023-08-07T23:27:20.223Z,101496.00
2023-08-07T23:29:49.381Z,101496.00
2023-08-07T23:32:18.398Z,101499.38
2023-08-07T23:34:47.639Z,101499.34
2023-08-07T23:37:16.644Z,101491.72
2023-08-07T23:39:45.862Z,101487.38
2023-08-07T23:42:15.013Z,101486.47
2023-08-07T23:44:44.260Z,101484.72
2023-08-07T23:47:13.637Z,101483.03
2023-08-07T23:49:43.777Z,101481.31
2023-08-07T23:52:13.154Z,101468.25
2023-08-07T23:54:42.174Z,101470.91
2023-08-07T23:57:11.513Z,101472.59
2023-08-07T23:59:40.510Z,101461.28
